Time;durP1;ratioP1;P1;durP2;ratioP2;P2;SDS_P1;SDS_P2;PMS_P1;PMS_P2;Temp;Humidity;BMP_temperature;BMP_pressure;BME280_temperature;BME280_humidity;BME280_pressure;Samples;Min_cycle;Max_cycle;Signal;HPM_P1;HPM_P2
2022/04/04 00:00:49;;;;;;;8.90;4.20;;;;;;;0.50;77.57;100613.75;8538015;33;20438;-75
2022/04/04 00:05:52;;;;;;;9.07;5.27;;;;;;;0.71;77.30;100605.97;8533298;33;20380;-76
2022/04/04 00:10:55;;;;;;;8.07;5.00;;;;;;;0.74;76.73;100592.63;8538248;33;20477;-75
2022/04/04 00:16:00;;;;;;;6.67;4.30;;;;;;;0.65;76.57;100591.19;8540887;33;20955;-76
2022/04/04 00:21:05;;;;;;;6.27;5.03;;;;;;;0.58;77.09;100584.41;8542331;33;20410;-76
2022/04/04 00:26:08;;;;;;;6.43;4.43;;;;;;;0.43;77.97;100579.66;8542230;33;20373;-75
2022/04/04 00:31:12;;;;;;;10.70;6.17;;;;;;;0.59;77.55;100583.47;8539322;33;20429;-76
2022/04/04 00:36:15;;;;;;;10.00;5.60;;;;;;;0.64;76.92;100581.53;8539635;33;20412;-76
2022/04/04 00:41:19;;;;;;;11.23;5.50;;;;;;;0.65;77.12;100570.03;8539497;33;20493;-75
2022/04/04 00:46:24;;;;;;;10.27;6.30;;;;;;;0.59;76.58;100565.84;8538669;33;20421;-76
2022/04/04 00:51:27;;;;;;;8.67;4.43;;;;;;;0.40;77.58;100556.84;8539885;33;20344;-75
2022/04/04 00:56:33;;;;;;;7.40;5.30;;;;;;;0.51;77.15;100556.47;8539239;33;20393;-75
2022/04/04 01:01:39;;;;;;;5.97;4.63;;;;;;;0.26;77.77;100546.78;8537330;33;20507;-76
2022/04/04 01:06:43;;;;;;;11.17;6.80;;;;;;;0.45;77.40;100544.34;8537626;33;20445;-76
2022/04/04 01:12:04;;;;;;;8.73;6.20;;;;;;;0.48;77.11;100544.22;8538892;33;20501;-76
2022/04/04 01:17:10;;;;;;;8.47;6.60;;;;;;;0.24;78.26;100537.19;8537328;33;20474;-76
2022/04/04 01:22:15;;;;;;;10.03;6.40;;;;;;;0.27;77.90;100531.78;8539116;33;20151;-76
2022/04/04 01:27:20;;;;;;;8.77;6.60;;;;;;;0.24;77.73;100523.97;8539211;33;20393;-76
2022/04/04 01:32:24;;;;;;;12.67;8.20;;;;;;;0.38;77.56;100517.28;8536893;33;20210;-76
2022/04/04 01:37:27;;;;;;;10.73;5.87;;;;;;;0.21;77.57;100519.66;8538653;33;20493;-76
2022/04/04 01:42:31;;;;;;;12.80;7.80;;;;;;;0.33;77.67;100483.97;8539357;33;20277;-76
2022/04/04 01:47:36;;;;;;;14.57;8.50;;;;;;;0.29;77.68;100483.25;8539306;33;20127;-76
2022/04/04 01:52:39;;;;;;;10.07;7.43;;;;;;;0.16;77.75;100481.97;8539283;33;20484;-76
2022/04/04 01:57:43;;;;;;;10.90;7.43;;;;;;;0.09;78.52;100477.84;8534404;33;20292;-76
2022/04/04 02:02:46;;;;;;;12.03;7.83;;;;;;;0.15;78.29;100459.13;8538865;33;22441;-76
2022/04/04 02:07:50;;;;;;;14.30;8.57;;;;;;;0.09;78.28;100452.28;8596761;32;20358;-76
2022/04/04 02:12:54;;;;;;;16.37;10.17;;;;;;;0.24;77.71;100450.84;8597634;32;20406;-76
2022/04/04 02:17:57;;;;;;;11.30;7.27;;;;;;;0.11;78.40;100436.34;8596773;32;20162;-76
2022/04/04 02:23:01;;;;;;;12.70;7.97;;;;;;;0.04;78.81;100443.66;8597383;32;21664;-76
2022/04/04 02:28:06;;;;;;;16.13;9.37;;;;;;;0.14;78.57;100423.06;8597390;32;20834;-76
2022/04/04 02:33:12;;;;;;;15.50;9.17;;;;;;;0.16;78.31;100424.72;8594216;32;20294;-76
2022/04/04 02:38:15;;;;;;;10.77;7.10;;;;;;;0.03;78.68;100407.63;8595546;32;20872;-76
2022/04/04 02:43:20;;;;;;;16.80;10.43;;;;;;;-0.11;79.67;100383.47;8594995;32;20472;-76
2022/04/04 02:48:24;;;;;;;16.43;11.57;;;;;;;-0.19;79.67;100388.16;8594525;32;20180;-76
2022/04/04 02:53:27;;;;;;;14.47;8.60;;;;;;;-0.03;79.56;100383.19;8594092;32;20327;-76
2022/04/04 02:58:31;;;;;;;13.53;9.97;;;;;;;0.13;78.46;100379.91;8593072;32;20410;-76
2022/04/04 03:03:34;;;;;;;14.20;9.20;;;;;;;-0.10;78.93;100362.31;8596736;32;20230;-76
2022/04/04 03:08:37;;;;;;;15.60;9.10;;;;;;;-0.19;79.49;100359.13;8596114;32;20201;-76
2022/04/04 03:13:42;;;;;;;15.17;9.97;;;;;;;-0.11;79.67;100357.06;8595012;32;20162;-76
2022/04/04 03:18:45;;;;;;;17.20;10.83;;;;;;;-0.20;80.32;100342.44;8590839;32;20307;-76
2022/04/04 03:23:48;;;;;;;16.33;10.40;;;;;;;-0.04;78.98;100333.94;8593360;32;20461;-76
2022/04/04 03:28:53;;;;;;;19.23;11.07;;;;;;;-0.02;79.57;100322.41;8592379;32;20799;-76
2022/04/04 03:33:56;;;;;;;10.00;6.83;;;;;;;-0.23;79.75;100331.97;8646097;32;20162;-76
2022/04/04 03:38:59;;;;;;;13.67;7.43;;;;;;;-0.15;79.74;100310.59;8652440;32;20178;-76
2022/04/04 03:44:05;;;;;;;18.97;11.90;;;;;;;-0.03;79.16;100302.19;8650435;32;20246;-76
2022/04/04 03:49:09;;;;;;;13.90;8.00;;;;;;;0.05;78.19;100280.75;8652872;32;20564;-76
2022/04/04 03:54:12;;;;;;;11.73;8.70;;;;;;;-0.10;79.46;100284.88;8652155;32;20213;-76
2022/04/04 03:59:17;;;;;;;13.40;9.30;;;;;;;-0.04;79.02;100279.34;8654129;32;21029;-76
2022/04/04 04:04:20;;;;;;;10.97;7.83;;;;;;;-0.10;78.64;100274.31;8659508;32;20223;-76
2022/04/04 04:09:23;;;;;;;14.33;10.20;;;;;;;0.14;78.91;100259.28;8667448;32;20166;-76
2022/04/04 04:14:27;;;;;;;15.17;9.73;;;;;;;0.15;78.05;100247.78;8672844;32;20543;-76
2022/04/04 04:24:51;;;;;;;22.60;13.33;;;;;;;0.31;76.99;100225.09;8675909;32;20174;-76
2022/04/04 04:29:55;;;;;;;21.27;10.77;;;;;;;0.25;76.61;100208.63;8676404;32;20627;-76
2022/04/04 04:34:58;;;;;;;18.47;8.60;;;;;;;0.08;76.76;100206.69;8674853;32;20428;-76
2022/04/04 04:40:01;;;;;;;23.00;12.50;;;;;;;0.08;76.62;100194.34;8674070;32;21694;-77
2022/04/04 04:45:08;;;;;;;19.43;12.20;;;;;;;0.21;76.17;100185.91;8667306;32;20495;-75
2022/04/04 04:50:13;;;;;;;11.83;8.27;;;;;;;0.16;75.41;100181.69;8659365;32;20143;-76
2022/04/04 04:55:19;;;;;;;19.87;11.47;;;;;;;0.38;75.31;100165.81;8660943;32;20723;-76
2022/04/04 05:00:27;;;;;;;17.00;9.43;;;;;;;0.38;74.71;100152.59;8671136;32;20142;-75
2022/04/04 05:05:30;;;;;;;16.93;8.83;;;;;;;-0.03;75.71;100150.78;8675418;32;20186;-76
2022/04/04 05:10:33;;;;;;;21.70;11.20;;;;;;;0.30;74.72;100141.47;8663851;32;20147;-76
2022/04/04 05:15:38;;;;;;;21.13;11.90;;;;;;;0.34;74.71;100132.50;8661141;32;20146;-75
2022/04/04 05:20:41;;;;;;;10.00;6.17;;;;;;;0.41;74.31;100126.94;8662508;32;20257;-75
2022/04/04 05:25:44;;;;;;;16.20;9.10;;;;;;;0.32;74.34;100125.56;8662365;32;20958;-76
2022/04/04 05:30:48;;;;;;;19.83;11.17;;;;;;;0.44;73.78;100109.19;8663377;32;20221;-75
2022/04/04 05:35:52;;;;;;;13.37;7.50;;;;;;;0.42;73.00;100105.75;8663177;32;20417;-75
2022/04/04 05:40:55;;;;;;;17.07;9.70;;;;;;;0.79;72.05;100101.47;8637226;32;20161;-76
2022/04/04 05:46:00;;;;;;;11.77;7.43;;;;;;;0.67;71.92;100080.88;8632554;32;21598;-76
2022/04/04 05:51:03;;;;;;;16.27;9.40;;;;;;;0.83;70.70;100066.03;8632555;32;20470;-76
2022/04/04 05:56:06;;;;;;;18.70;10.37;;;;;;;0.99;69.91;100053.81;8632337;32;20412;-76
2022/04/04 06:01:11;;;;;;;13.47;8.40;;;;;;;0.72;70.18;100050.66;8631055;32;20495;-76
2022/04/04 06:06:14;;;;;;;13.37;7.67;;;;;;;0.67;69.43;100076.44;8631149;32;20420;-75
2022/04/04 06:11:17;;;;;;;14.67;7.93;;;;;;;0.68;69.29;100049.06;8631969;32;20180;-76
2022/04/04 06:16:22;;;;;;;10.10;6.70;;;;;;;0.89;68.78;100049.88;8630548;32;20454;-76
2022/04/04 06:21:25;;;;;;;13.67;8.20;;;;;;;1.06;68.32;100042.00;8632201;32;20796;-76
2022/04/04 06:26:30;;;;;;;10.90;6.77;;;;;;;0.91;68.39;100040.09;8631755;32;20409;-75
2022/04/04 06:31:35;;;;;;;10.67;6.30;;;;;;;1.18;67.80;100029.13;8630232;32;20150;-76
2022/04/04 06:36:38;;;;;;;11.77;7.13;;;;;;;1.08;67.97;100019.94;8629984;32;20725;-75
2022/04/04 06:41:42;;;;;;;13.40;7.93;;;;;;;1.09;67.55;100013.69;8631569;32;20228;-74
2022/04/04 06:46:46;;;;;;;11.50;7.07;;;;;;;1.47;66.58;99995.94;8631226;32;20598;-74
2022/04/04 06:51:51;;;;;;;10.33;6.63;;;;;;;1.48;66.29;99993.25;8631421;32;20841;-74
2022/04/04 06:56:55;;;;;;;10.00;6.33;;;;;;;1.44;66.13;99970.50;8628902;32;20394;-74
2022/04/04 07:01:59;;;;;;;8.30;5.60;;;;;;;1.72;65.33;99954.06;8630301;32;21203;-74
2022/04/04 07:07:03;;;;;;;9.70;5.67;;;;;;;1.59;64.84;99938.88;8628924;32;20143;-74
2022/04/04 07:12:09;;;;;;;9.17;5.70;;;;;;;1.65;63.58;99934.16;8631322;32;20145;-74
2022/04/04 07:17:13;;;;;;;12.20;6.60;;;;;;;1.80;63.42;99931.63;8630194;32;20191;-74
2022/04/04 07:22:16;;;;;;;15.47;7.87;;;;;;;1.97;63.01;99931.59;8609096;32;21140;-74
2022/04/04 07:27:19;;;;;;;10.47;6.00;;;;;;;2.01;63.28;99900.53;8599799;32;21079;-74
2022/04/04 07:32:24;;;;;;;11.67;7.80;;;;;;;2.32;62.13;99889.97;8597880;32;20292;-74
2022/04/04 07:37:27;;;;;;;10.57;5.00;;;;;;;2.40;61.62;99889.56;8604131;32;20131;-74
2022/04/04 07:49:37;;;;;;;10.83;7.20;;;;;;;2.71;60.25;99854.25;8567291;33;20424;-75
2022/04/04 07:54:40;;;;;;;13.30;6.38;;;;;;;2.41;60.43;99854.13;8567466;33;20164;-74
2022/04/04 07:59:44;;;;;;;9.07;5.20;;;;;;;2.63;60.00;99850.31;8570013;33;20400;-74
2022/04/04 08:04:49;;;;;;;15.17;6.83;;;;;;;2.48;60.79;99841.41;8566693;33;20592;-74
2022/04/04 08:09:52;;;;;;;8.60;4.83;;;;;;;2.49;60.17;99837.81;8566543;33;20422;-75
2022/04/04 08:14:55;;;;;;;10.00;6.95;;;;;;;2.68;60.09;99806.69;8565665;33;20904;-75
2022/04/04 08:20:00;;;;;;;8.25;5.20;;;;;;;2.60;60.55;99812.41;8565117;33;20378;-75
2022/04/04 08:25:04;;;;;;;9.30;6.57;;;;;;;2.45;61.82;99801.81;8565233;33;20452;-75
2022/04/04 08:30:10;;;;;;;13.83;7.23;;;;;;;2.74;62.48;99768.34;8566223;33;20422;-75
2022/04/04 08:35:16;;;;;;;13.70;8.77;;;;;;;2.36;63.12;99777.53;8570253;33;20143;-75
2022/04/04 08:40:19;;;;;;;8.00;5.33;;;;;;;2.35;63.51;99740.50;8569464;33;20418;-74
2022/04/04 08:45:23;;;;;;;13.87;8.63;;;;;;;2.35;65.71;99727.25;8566367;33;20148;-75
2022/04/04 08:50:27;;;;;;;9.45;6.15;;;;;;;2.27;65.28;99709.13;8571439;33;20415;-75
2022/04/04 08:55:30;;;;;;;9.33;4.53;;;;;;;2.61;64.16;99699.28;8565548;33;20407;-75
2022/04/04 09:00:36;;;;;;;10.48;5.70;;;;;;;2.80;62.51;99676.03;8571342;33;20263;-75
2022/04/04 09:05:53;;;;;;;11.80;6.22;;;;;;;2.95;62.06;99668.94;8566731;33;20591;-74
2022/04/04 09:11:00;;;;;;;9.73;6.90;;;;;;;2.87;63.19;99695.06;8566227;33;20151;-74
2022/04/04 09:16:06;;;;;;;14.07;7.47;;;;;;;2.52;66.15;99658.19;8569996;33;20241;-74
2022/04/04 09:21:13;;;;;;;11.87;7.77;;;;;;;2.90;64.63;99639.16;8570793;33;20659;-76
2022/04/04 09:26:31;;;;;;;14.43;10.03;;;;;;;2.73;66.90;99658.75;8572044;33;20423;-74
2022/04/04 09:31:34;;;;;;;15.68;8.18;;;;;;;2.82;68.17;99660.84;8571412;33;20155;-74
2022/04/04 09:36:47;;;;;;;16.08;10.35;;;;;;;2.97;68.08;99621.94;8570087;33;20471;-74
2022/04/04 09:41:50;;;;;;;13.80;8.00;;;;;;;2.76;67.53;99671.84;8570916;33;20483;-74
2022/04/04 09:46:53;;;;;;;13.75;9.15;;;;;;;2.93;68.76;99603.63;8569448;33;20415;-74
2022/04/04 09:51:58;;;;;;;16.65;9.18;;;;;;;2.32;71.58;99586.97;8570727;33;20128;-75
2022/04/04 09:57:12;;;;;;;16.52;11.70;;;;;;;2.30;74.11;99592.34;8570840;33;20532;-75
2022/04/04 10:02:16;;;;;;;19.30;11.13;;;;;;;2.19;76.52;99576.22;8571544;33;21345;-75
2022/04/04 10:07:21;;;;;;;18.23;12.17;;;;;;;1.72;77.62;99614.28;8568540;33;20619;-75
2022/04/04 10:12:24;;;;;;;22.03;12.57;;;;;;;1.79;80.08;99589.16;8570250;33;20400;-76
2022/04/04 10:17:27;;;;;;;21.42;13.15;;;;;;;1.82;79.18;99541.31;8570888;33;21496;-76
2022/04/04 10:22:32;;;;;;;23.07;12.40;;;;;;;1.69;82.26;99572.94;8571944;33;20432;-77
2022/04/04 10:27:37;;;;;;;25.73;15.70;;;;;;;1.68;82.91;99536.81;8570879;33;21016;-77
2022/04/04 10:32:51;;;;;;;30.60;17.30;;;;;;;1.30;83.99;99549.59;8571042;33;20140;-76
2022/04/04 10:37:59;;;;;;;24.60;14.83;;;;;;;1.28;86.35;99531.13;8571917;33;20480;-77
2022/04/04 10:43:14;;;;;;;27.83;15.53;;;;;;;1.10;87.47;99550.69;8569702;33;20545;-77
2022/04/04 10:48:19;;;;;;;27.70;17.27;;;;;;;1.01;89.46;99501.78;8568708;33;20375;-77
2022/04/04 10:53:44;;;;;;;26.23;16.00;;;;;;;1.09;89.63;99497.88;8570934;33;20483;-77
2022/04/04 10:58:48;;;;;;;24.20;16.00;;;;;;;1.24;89.04;99482.00;8569802;33;20409;-77
2022/04/04 11:03:59;;;;;;;23.63;13.83;;;;;;;1.21;89.48;99476.03;8571736;33;20870;-77
2022/04/04 11:09:12;;;;;;;27.33;16.30;;;;;;;1.37;89.44;99483.94;8567851;33;20467;-77
2022/04/04 11:14:17;;;;;;;21.40;13.60;;;;;;;0.98;89.17;99495.81;8571177;33;20207;-77
2022/04/04 11:19:20;;;;;;;21.27;11.57;;;;;;;1.00;89.85;99504.53;8570751;33;20448;-78
2022/04/04 11:24:31;;;;;;;23.43;13.83;;;;;;;1.21;89.97;99465.44;8575463;33;20965;-77
2022/04/04 11:29:36;;;;;;;21.93;13.90;;;;;;;1.01;90.39;99467.41;8571935;33;20407;-78
2022/04/04 11:34:42;;;;;;;19.43;11.73;;;;;;;0.90;91.81;99432.78;8571874;33;20470;-78
2022/04/04 11:39:49;;;;;;;22.80;14.33;;;;;;;0.84;91.68;99422.56;8569673;33;20414;-77
2022/04/04 11:44:52;;;;;;;25.23;12.97;;;;;;;0.87;93.11;99418.88;8569815;33;20196;-77
2022/04/04 11:49:58;;;;;;;23.17;14.47;;;;;;;0.70;93.30;99420.69;8565935;33;20404;-77
2022/04/04 11:55:07;;;;;;;21.83;13.00;;;;;;;0.97;92.80;99401.56;8564661;33;20454;-77
2022/04/04 12:00:15;;;;;;;21.57;13.77;;;;;;;0.87;93.53;99419.72;8562534;33;20381;-77
2022/04/04 12:05:22;;;;;;;21.57;13.27;;;;;;;1.23;92.78;99400.06;8564664;33;21211;-77
2022/04/04 12:10:32;;;;;;;23.67;12.83;;;;;;;1.01;93.05;99374.84;8571531;33;20286;-77
2022/04/04 12:15:37;;;;;;;24.80;14.00;;;;;;;0.91;93.30;99383.41;8628913;32;20177;-76
2022/04/04 12:20:44;;;;;;;28.47;14.40;;;;;;;1.01;93.45;99364.25;8629248;32;20381;-76
2022/04/04 12:25:48;;;;;;;22.43;14.83;;;;;;;1.10;92.89;99356.72;8628549;32;21110;-76
2022/04/04 12:30:52;;;;;;;18.90;12.80;;;;;;;1.11;93.63;99351.38;8590249;32;20196;-75
2022/04/04 12:35:55;;;;;;;26.00;15.50;;;;;;;1.12;94.53;99344.28;8569638;33;20433;-76
2022/04/04 12:41:09;;;;;;;18.77;10.73;;;;;;;1.28;94.08;99334.50;8569609;33;20529;-76
2022/04/04 12:46:25;;;;;;;22.83;12.77;;;;;;;1.23;95.43;99315.41;8539052;33;1083443;-76
2022/04/04 12:51:34;;;;;;;27.27;15.53;;;;;;;1.11;95.90;99308.19;8571067;33;20506;-76
2022/04/04 12:56:51;;;;;;;23.10;13.07;;;;;;;1.28;95.82;99306.25;8570490;33;20436;-76
2022/04/04 13:02:06;;;;;;;24.30;15.97;;;;;;;1.19;94.96;99313.88;8570871;33;20303;-76
2022/04/04 13:07:16;;;;;;;21.10;13.53;;;;;;;1.38;95.68;99297.78;8570238;33;20878;-76
2022/04/04 13:12:28;;;;;;;22.77;13.20;;;;;;;1.48;97.04;99291.84;8569349;33;20320;-75
2022/04/04 13:17:36;;;;;;;20.63;13.40;;;;;;;1.45;96.73;99299.09;8569881;33;20405;-76
2022/04/04 13:22:40;;;;;;;17.63;9.87;;;;;;;1.48;99.97;99272.44;8573700;33;20244;-76
2022/04/04 13:27:44;;;;;;;19.50;10.57;;;;;;;1.46;97.38;99280.47;8570401;33;20403;-76
2022/04/04 13:32:48;;;;;;;17.70;11.20;;;;;;;1.36;98.57;99255.50;8569648;33;20456;-76
2022/04/04 13:37:51;;;;;;;18.70;9.20;;;;;;;1.34;97.46;99277.72;8568469;33;20316;-76
2022/04/04 13:42:55;;;;;;;22.17;13.13;;;;;;;1.39;97.40;99242.09;8570527;33;20418;-76
2022/04/04 13:47:58;;;;;;;15.43;9.03;;;;;;;1.36;97.41;99263.44;8576620;33;20500;-78
2022/04/04 13:53:01;;;;;;;20.63;12.43;;;;;;;1.48;97.48;99248.63;8578701;33;20444;-77
2022/04/04 13:58:06;;;;;;;20.27;11.57;;;;;;;1.40;97.74;99237.66;8567613;33;20471;-76
2022/04/04 14:03:10;;;;;;;17.97;10.60;;;;;;;1.39;97.64;99249.19;8568576;33;20143;-77
2022/04/04 14:08:13;;;;;;;16.73;9.70;;;;;;;1.40;98.13;99235.88;8569140;33;20821;-77
2022/04/04 14:13:19;;;;;;;20.30;11.80;;;;;;;1.20;99.24;99226.47;8571077;33;20270;-77
2022/04/04 14:18:23;;;;;;;17.17;10.77;;;;;;;1.24;100.00;99280.09;8568884;33;20895;-77
2022/04/04 14:23:26;;;;;;;16.77;8.80;;;;;;;1.25;100.00;99279.97;8569622;33;20128;-77
2022/04/04 14:28:32;;;;;;;14.87;8.80;;;;;;;1.35;99.77;99229.16;8569182;33;20469;-77
2022/04/04 14:33:35;;;;;;;22.37;11.07;;;;;;;1.29;99.74;99225.09;8570771;33;20412;-77
2022/04/04 14:38:39;;;;;;;1.10;1.10;;;;;;;1.24;99.15;99216.59;8570204;33;20461;-77
2022/04/04 14:43:43;;;;;;;16.70;10.60;;;;;;;1.21;98.94;99195.63;8568878;33;20379;-77
2022/04/04 14:48:46;;;;;;;15.47;10.47;;;;;;;1.26;98.85;99193.50;8569460;33;20947;-77
2022/04/04 14:53:49;;;;;;;14.73;11.13;;;;;;;1.40;99.33;99167.06;8568589;33;20430;-77
2022/04/04 14:58:54;;;;;;;16.27;9.57;;;;;;;1.38;98.68;99206.00;8567644;33;20140;-77
2022/04/04 15:03:57;;;;;;;16.30;10.07;;;;;;;1.28;99.16;99183.69;8569404;33;20180;-77
2022/04/04 15:09:00;;;;;;;16.20;11.60;;;;;;;1.13;100.00;99188.16;8568654;33;20196;-77
2022/04/04 15:14:05;;;;;;;16.03;9.10;;;;;;;1.36;99.28;99192.00;8567872;33;20166;-77
2022/04/04 15:19:09;;;;;;;13.17;9.73;;;;;;;1.23;98.60;99154.88;8559421;33;21774;-77
2022/04/04 15:24:12;;;;;;;19.73;12.63;;;;;;;1.29;98.74;99198.66;8568228;33;21635;-77
2022/04/04 15:29:25;;;;;;;18.80;10.93;;;;;;;1.37;98.63;99167.28;8566740;33;20441;-77
2022/04/04 15:34:28;;;;;;;15.83;9.83;;;;;;;1.47;98.86;99154.28;8565952;33;20808;-77
2022/04/04 15:39:33;;;;;;;17.97;9.87;;;;;;;1.59;98.66;99174.72;8568180;33;20429;-77
2022/04/04 15:44:38;;;;;;;15.37;8.53;;;;;;;1.47;99.62;99178.13;8565372;33;20578;-76
2022/04/04 15:49:42;;;;;;;13.17;8.20;;;;;;;1.54;100.00;99154.75;8565246;33;20402;-76
2022/04/04 15:54:46;;;;;;;14.23;7.97;;;;;;;1.48;99.51;99162.16;8579231;33;20437;-76
2022/04/04 15:59:51;;;;;;;18.13;13.03;;;;;;;1.59;99.61;99160.59;8522459;33;20497;-76
2022/04/04 16:04:55;;;;;;;18.83;11.30;;;;;;;1.73;99.53;99148.19;8524466;33;20414;-76
2022/04/04 16:10:01;;;;;;;20.43;12.83;;;;;;;1.66;100.00;99144.25;8524079;33;20468;-77
2022/04/04 16:15:08;;;;;;;20.57;11.97;;;;;;;1.99;99.06;99144.81;8524113;33;20465;-76
2022/04/04 16:20:18;;;;;;;20.27;10.27;;;;;;;1.80;99.86;99131.91;8524670;33;20514;-77
2022/04/04 16:25:21;;;;;;;9.80;4.73;;;;;;;1.88;99.31;99169.34;8523862;33;20128;-76
2022/04/04 16:30:25;;;;;;;0.60;0.60;;;;;;;1.92;99.58;99144.34;8522097;33;20394;-77
2022/04/04 16:35:29;;;;;;;18.23;10.73;;;;;;;1.93;100.00;99148.72;8523961;33;20903;-76
2022/04/04 16:40:32;;;;;;;20.33;10.87;;;;;;;2.00;99.61;99142.06;8521494;33;21705;-77
2022/04/04 16:45:37;;;;;;;23.27;15.23;;;;;;;2.01;99.62;99141.13;8523757;33;20536;-77
2022/04/04 16:50:41;;;;;;;17.90;10.37;;;;;;;2.12;99.26;99151.88;8524643;33;20901;-77
2022/04/04 16:55:44;;;;;;;16.07;9.90;;;;;;;2.07;99.40;99148.66;8530657;33;20465;-77
2022/04/04 17:00:49;;;;;;;19.07;9.87;;;;;;;2.11;98.84;99138.69;8528747;33;20739;-77
2022/04/04 17:05:53;;;;;;;15.97;8.97;;;;;;;2.08;98.81;99129.16;8527850;33;20407;-77
2022/04/04 17:10:57;;;;;;;16.35;9.43;;;;;;;2.21;97.99;99108.00;8517013;33;27129;-76
2022/04/04 17:16:01;;;;;;;16.40;10.37;;;;;;;2.22;98.59;99152.09;8526346;33;20406;-77
2022/04/04 17:21:04;;;;;;;19.03;10.10;;;;;;;2.26;99.36;99127.09;8529840;33;20920;-77
2022/04/04 17:26:08;;;;;;;18.00;10.50;;;;;;;2.22;99.43;99145.94;8527037;33;20123;-77
2022/04/04 17:31:13;;;;;;;22.23;12.90;;;;;;;2.27;99.62;99122.66;8527711;33;20424;-76
2022/04/04 17:36:16;;;;;;;17.00;9.37;;;;;;;2.40;98.79;99097.03;8526157;33;20502;-76
2022/04/04 17:41:19;;;;;;;17.83;9.73;;;;;;;2.47;98.76;99145.16;8527794;33;20408;-76
2022/04/04 17:46:23;;;;;;;13.77;7.75;;;;;;;2.43;98.54;99147.16;8526836;33;20394;-76
2022/04/04 17:51:27;;;;;;;22.27;12.63;;;;;;;2.44;98.96;99140.06;8527240;33;20995;-77
2022/04/04 17:56:30;;;;;;;21.03;12.63;;;;;;;2.46;99.33;99167.31;8525989;33;20501;-76
2022/04/04 18:01:34;;;;;;;19.63;10.48;;;;;;;2.57;98.82;99148.94;8526528;33;20352;-76
2022/04/04 18:06:38;;;;;;;25.60;13.75;;;;;;;2.44;99.18;99132.97;8525411;33;20310;-77
2022/04/04 18:11:41;;;;;;;20.65;12.00;;;;;;;2.47;99.92;99153.09;8522490;33;20297;-76
2022/04/04 18:16:47;;;;;;;23.52;11.70;;;;;;;2.69;99.44;99148.13;8531765;33;20407;-77
2022/04/04 18:21:51;;;;;;;23.90;13.27;;;;;;;2.76;99.61;99148.53;8543054;33;20423;-77
2022/04/04 18:26:55;;;;;;;27.83;13.95;;;;;;;2.69;99.59;99148.13;8526513;33;20222;-77
2022/04/04 18:31:59;;;;;;;19.13;11.47;;;;;;;2.73;100.00;99151.41;8526733;33;20428;-77
2022/04/04 18:37:03;;;;;;;24.38;11.63;;;;;;;2.86;99.48;99164.66;8525587;33;20616;-77
2022/04/04 18:42:06;;;;;;;23.88;13.73;;;;;;;2.91;98.91;99144.84;8525014;33;20464;-77
2022/04/04 18:47:11;;;;;;;30.15;18.75;;;;;;;3.09;98.34;99139.19;8524880;33;21185;-77
2022/04/04 18:52:19;;;;;;;23.05;9.88;;;;;;;2.92;99.00;99148.31;8525598;33;20413;-78
2022/04/04 18:57:22;;;;;;;19.92;10.15;;;;;;;2.96;99.85;99133.88;8530457;33;20428;-78
2022/04/04 19:02:26;;;;;;;23.10;12.80;;;;;;;3.14;99.62;99134.41;8532743;33;20376;-79
2022/04/04 19:07:30;;;;;;;25.90;14.32;;;;;;;3.06;99.55;99140.25;8533487;33;20433;-79
2022/04/04 19:12:33;;;;;;;26.13;13.65;;;;;;;3.03;99.34;99145.78;8531591;33;20124;-79
2022/04/04 19:17:39;;;;;;;25.92;13.68;;;;;;;3.04;99.41;99152.78;8533686;33;20479;-78
2022/04/04 19:22:42;;;;;;;26.73;14.80;;;;;;;3.00;99.63;99173.38;8538309;33;20392;-79
2022/04/04 19:27:45;;;;;;;20.03;10.17;;;;;;;3.20;100.00;99147.25;8525557;33;20719;-79
2022/04/04 19:32:50;;;;;;;23.17;13.38;;;;;;;3.24;99.35;99151.41;8510587;33;20718;-79
2022/04/04 19:37:53;;;;;;;24.10;11.95;;;;;;;3.19;99.62;99186.22;8533764;33;21986;-78
2022/04/04 19:42:59;;;;;;;31.00;15.95;;;;;;;3.35;99.24;99179.84;8521562;33;20908;-79
2022/04/04 19:48:05;;;;;;;6.15;3.08;;;;;;;3.18;99.92;99167.72;8534986;33;20519;-78
2022/04/04 19:53:10;;;;;;;4.45;2.55;;;;;;;3.31;100.00;99173.03;8538116;33;20517;-78
2022/04/04 19:58:13;;;;;;;0.70;0.70;;;;;;;3.40;100.00;99188.31;8536879;33;20266;-78
2022/04/04 20:03:23;;;;;;;0.93;0.93;;;;;;;3.50;100.00;99186.72;8534555;33;20499;-78
2022/04/04 20:08:27;;;;;;;1.95;1.85;;;;;;;3.47;100.00;99202.88;8532054;33;20207;-78
2022/04/04 20:13:30;;;;;;;1.75;1.65;;;;;;;3.52;100.00;99207.88;8533820;33;20427;-78
2022/04/04 20:18:38;;;;;;;1.27;1.17;;;;;;;3.71;99.81;99190.50;8533854;33;20390;-78
2022/04/04 20:23:41;;;;;;;0.70;0.70;;;;;;;3.86;98.87;99195.66;8521468;33;20280;-78
2022/04/04 20:28:44;;;;;;;2.20;1.92;;;;;;;3.92;97.29;99196.09;8539112;33;20336;-79
2022/04/04 20:33:49;;;;;;;1.15;1.15;;;;;;;3.93;97.27;99203.09;8529770;33;20188;-75
2022/04/04 20:38:52;;;;;;;1.67;1.65;;;;;;;3.92;97.58;99195.22;8512065;33;20576;-77
2022/04/04 20:43:55;;;;;;;0.60;0.60;;;;;;;3.90;97.94;99202.47;8474641;33;20386;-75
2022/04/04 20:49:00;;;;;;;2.45;1.33;;;;;;;4.05;97.93;99190.72;8493745;33;20417;-74
2022/04/04 20:54:03;;;;;;;0.90;0.90;;;;;;;3.97;97.62;99202.88;8528876;33;20894;-77
2022/04/04 20:59:06;;;;;;;1.42;1.42;;;;;;;4.17;97.53;99191.66;8527740;33;20478;-77
2022/04/04 21:04:12;;;;;;;2.00;1.77;;;;;;;4.06;97.73;99191.56;8529911;33;20971;-76
2022/04/04 21:09:15;;;;;;;1.40;1.40;;;;;;;4.24;96.22;99181.41;8527680;33;20424;-76
2022/04/04 21:14:19;;;;;;;1.27;1.27;;;;;;;4.15;97.39;99178.47;8522400;33;20135;-76
2022/04/04 21:19:23;;;;;;;0.82;0.82;;;;;;;4.26;96.84;99175.00;8528131;33;20388;-77
2022/04/04 21:24:26;;;;;;;1.15;1.15;;;;;;;4.06;97.54;99171.16;8531493;33;20452;-77
2022/04/04 21:29:30;;;;;;;0.70;0.70;;;;;;;4.07;98.15;99154.25;8526975;33;20482;-77
2022/04/04 21:34:35;;;;;;;0.55;0.55;;;;;;;4.02;97.98;99169.69;8527795;33;21700;-77
2022/04/04 21:39:38;;;;;;;0.60;0.60;;;;;;;4.06;98.76;99170.28;8527277;33;20442;-77
2022/04/04 21:44:42;;;;;;;1.02;1.02;;;;;;;4.04;100.00;99153.66;8527731;33;20409;-75
2022/04/04 21:49:46;;;;;;;0.50;0.50;;;;;;;4.13;98.78;99166.25;8527099;33;20486;-76
2022/04/04 21:54:49;;;;;;;2.03;1.90;;;;;;;4.12;98.80;99161.91;8526039;33;20462;-75
2022/04/04 21:59:53;;;;;;;2.70;2.40;;;;;;;4.21;98.20;99158.56;8525265;33;20416;-75
2022/04/04 22:04:57;;;;;;;2.10;1.88;;;;;;;4.24;97.83;99163.63;8526344;33;20577;-76
2022/04/04 22:10:00;;;;;;;3.03;1.88;;;;;;;4.16;99.13;99150.91;8526150;33;20420;-75
2022/04/04 22:15:04;;;;;;;6.65;1.45;;;;;;;4.20;99.17;99161.31;8526050;33;20402;-76
2022/04/04 22:20:11;;;;;;;0.88;0.88;;;;;;;4.23;99.08;99172.59;8525833;33;20957;-76
2022/04/04 22:25:20;;;;;;;0.45;0.45;;;;;;;4.22;98.55;99170.03;8525199;33;20798;-76
2022/04/04 22:30:23;;;;;;;0.38;0.38;;;;;;;4.32;98.71;99155.94;8525712;33;20456;-76
2022/04/04 22:35:28;;;;;;;0.52;0.52;;;;;;;4.36;98.26;99152.09;8525220;33;20420;-76
2022/04/04 22:40:31;;;;;;;0.55;0.55;;;;;;;4.27;98.17;99160.75;8525192;33;20431;-75
2022/04/04 22:45:34;;;;;;;1.02;1.02;;;;;;;4.18;98.11;99158.78;8524872;33;20505;-76
2022/04/04 22:50:39;;;;;;;6.90;3.65;;;;;;;4.25;98.56;99156.50;8523424;33;20401;-76
2022/04/04 22:55:42;;;;;;;9.43;5.10;;;;;;;4.34;98.74;99155.84;8524380;33;20397;-76
2022/04/04 23:00:45;;;;;;;10.88;5.43;;;;;;;4.33;98.03;99151.47;8524789;33;20536;-76
2022/04/04 23:05:50;;;;;;;10.25;6.50;;;;;;;4.28;98.63;99150.94;8524750;33;20282;-76
2022/04/04 23:10:53;;;;;;;12.73;7.60;;;;;;;4.48;97.65;99139.69;8524839;33;20456;-76
2022/04/04 23:15:56;;;;;;;13.90;5.68;;;;;;;4.28;98.62;99140.31;8524216;33;21200;-76
2022/04/04 23:21:00;;;;;;;8.10;4.78;;;;;;;4.30;98.23;99141.06;8524841;33;20139;-76
2022/04/04 23:26:04;;;;;;;10.52;5.40;;;;;;;4.28;98.23;99140.31;8527100;33;20416;-77
2022/04/04 23:31:07;;;;;;;10.52;4.28;;;;;;;4.39;97.93;99138.56;8524961;33;20295;-76
2022/04/04 23:36:11;;;;;;;10.65;5.78;;;;;;;4.45;97.16;99133.75;8522387;33;20170;-76
2022/04/04 23:41:14;;;;;;;10.55;5.13;;;;;;;4.40;97.30;99142.06;8522362;33;20124;-76
2022/04/04 23:46:17;;;;;;;10.00;5.25;;;;;;;4.50;96.96;99134.25;8523722;33;20480;-76
2022/04/04 23:51:22;;;;;;;12.30;6.25;;;;;;;4.45;97.08;99131.09;8524267;33;20508;-76
2022/04/04 23:56:25;;;;;;;7.97;4.28;;;;;;;4.43;97.49;99141.00;8523412;33;20384;-76
